createdAt,value
2018-08-07T00:03:28.051Z,18.80
2018-08-07T00:07:36.284Z,18.70
2018-08-07T00:11:44.465Z,18.60
2018-08-07T00:15:52.657Z,18.50
2018-08-07T00:20:00.874Z,18.40
2018-08-07T00:24:09.053Z,18.30
2018-08-07T00:28:17.231Z,18.20
2018-08-07T00:32:24.717Z,18.10
2018-08-07T00:36:32.962Z,18.10
2018-08-07T00:40:41.181Z,18.00
2018-08-07T00:44:49.383Z,18.00
2018-08-07T00:48:57.580Z,17.90
2018-08-07T00:57:13.712Z,17.80
2018-08-07T01:01:21.933Z,17.70
2018-08-07T01:05:30.229Z,17.60
2018-08-07T01:09:38.457Z,17.60
2018-08-07T01:13:46.645Z,17.50
2018-08-07T01:17:54.816Z,17.50
2018-08-07T01:22:02.999Z,17.40
2018-08-07T01:30:21.882Z,17.40
2018-08-07T01:34:30.054Z,17.30
2018-08-07T01:38:38.238Z,17.30
2018-08-07T01:42:46.460Z,17.30
2018-08-07T01:46:54.673Z,17.20
2018-08-07T01:51:02.926Z,17.20
2018-08-07T01:55:20.938Z,17.10
2018-08-07T01:59:29.125Z,17.10
2018-08-07T02:03:37.308Z,17.10
2018-08-07T02:07:45.504Z,17.00
2018-08-07T02:11:53.750Z,16.90
2018-08-07T02:16:01.953Z,16.90
2018-08-07T02:20:13.453Z,16.80
2018-08-07T02:24:21.633Z,16.80
2018-08-07T02:28:29.838Z,16.80
2018-08-07T02:32:39.031Z,16.70
2018-08-07T02:36:46.530Z,16.60
2018-08-07T02:40:54.032Z,16.50
2018-08-07T02:45:01.537Z,16.40
2018-08-07T02:49:09.749Z,16.40
2018-08-07T02:53:17.913Z,16.40
2018-08-07T02:57:26.082Z,16.30
2018-08-07T03:01:34.265Z,16.40
2018-08-07T03:05:41.842Z,16.30
2018-08-07T03:09:49.329Z,16.30
2018-08-07T03:13:56.819Z,16.30
2018-08-07T03:18:04.330Z,16.30
2018-08-07T03:22:11.825Z,16.20
2018-08-07T03:26:19.304Z,16.20
2018-08-07T03:30:27.494Z,16.10
2018-08-07T03:34:35.699Z,16.00
2018-08-07T03:38:43.866Z,16.00
2018-08-07T03:42:52.066Z,16.00
2018-08-07T03:47:00.275Z,15.90
2018-08-07T03:51:08.490Z,15.90
2018-08-07T03:55:17.966Z,15.90
2018-08-07T03:59:26.178Z,15.90
2018-08-07T04:03:35.189Z,15.80
2018-08-07T04:07:43.405Z,15.80
2018-08-07T04:11:51.599Z,15.80
2018-08-07T04:15:59.776Z,15.80
2018-08-07T04:20:10.465Z,15.70
2018-08-07T04:24:18.676Z,15.70
2018-08-07T04:28:26.871Z,15.70
2018-08-07T04:32:35.057Z,15.70
2018-08-07T04:36:43.297Z,15.90
2018-08-07T04:40:51.488Z,15.90
2018-08-07T04:44:59.664Z,16.00
2018-08-07T04:49:07.825Z,16.10
2018-08-07T04:53:16.005Z,16.20
2018-08-07T04:57:24.167Z,16.30
2018-08-07T05:01:32.349Z,16.50
2018-08-07T05:05:41.242Z,16.70
2018-08-07T05:09:49.477Z,17.40
2018-08-07T05:13:57.649Z,18.00
2018-08-07T05:18:05.909Z,18.50
2018-08-07T05:22:14.121Z,19.00
2018-08-07T05:26:22.301Z,19.50
2018-08-07T05:30:30.485Z,19.90
2018-08-07T05:34:38.629Z,20.10
2018-08-07T05:38:46.788Z,20.30
2018-08-07T05:42:54.956Z,20.60
2018-08-07T05:47:03.170Z,20.90
2018-08-07T05:51:11.628Z,21.00
2018-08-07T05:55:19.585Z,20.90
2018-08-07T05:59:27.706Z,20.80
2018-08-07T06:03:35.890Z,20.60
2018-08-07T06:07:44.084Z,20.60
2018-08-07T06:11:52.284Z,20.60
2018-08-07T06:16:00.489Z,20.70
2018-08-07T06:20:09.566Z,20.90
2018-08-07T06:24:17.754Z,21.10
2018-08-07T06:28:25.964Z,21.20
2018-08-07T06:32:34.151Z,21.50
2018-08-07T06:36:42.450Z,21.70
2018-08-07T06:40:50.630Z,21.90
2018-08-07T06:44:58.807Z,22.20
2018-08-07T06:49:07.066Z,22.40
2018-08-07T06:53:15.284Z,22.80
2018-08-07T06:57:23.453Z,23.10
2018-08-07T07:01:31.641Z,23.40
2018-08-07T07:05:39.845Z,23.80
2018-08-07T07:09:48.094Z,24.20
2018-08-07T07:13:56.235Z,24.50
2018-08-07T07:18:04.849Z,24.90
2018-08-07T07:22:13.070Z,25.30
2018-08-07T07:26:21.334Z,25.60
2018-08-07T07:30:29.580Z,25.90
2018-08-07T07:34:37.823Z,26.20
2018-08-07T07:38:45.996Z,26.40
2018-08-07T07:42:54.215Z,26.80
2018-08-07T07:47:02.598Z,27.10
2018-08-07T07:51:10.817Z,27.50
2018-08-07T07:55:19.593Z,27.80
2018-08-07T07:59:27.785Z,28.20
2018-08-07T08:03:35.965Z,28.60
2018-08-07T08:07:44.220Z,29.00
2018-08-07T08:11:52.673Z,29.60
2018-08-07T08:16:00.867Z,30.10
2018-08-07T08:20:11.109Z,30.50
2018-08-07T08:24:19.312Z,31.00
2018-08-07T08:28:27.510Z,31.30
2018-08-07T08:32:36.578Z,31.60
2018-08-07T08:36:44.769Z,31.80
2018-08-07T08:40:52.976Z,31.90
2018-08-07T08:45:01.182Z,32.10
2018-08-07T08:49:09.432Z,32.20
2018-08-07T08:53:17.637Z,32.40
2018-08-07T08:57:25.897Z,32.50
2018-08-07T09:01:34.125Z,32.60
2018-08-07T09:05:42.329Z,32.70
2018-08-07T09:09:50.574Z,32.70
2018-08-07T09:13:58.762Z,32.90
2018-08-07T09:18:06.993Z,33.00
2018-08-07T09:22:15.189Z,33.10
2018-08-07T09:26:23.373Z,33.30
2018-08-07T09:30:31.810Z,33.40
2018-08-07T09:34:39.998Z,33.40
2018-08-07T09:38:48.201Z,33.30
2018-08-07T09:42:57.115Z,33.30
2018-08-07T09:47:05.308Z,33.50
2018-08-07T09:51:13.555Z,33.70
2018-08-07T09:55:21.740Z,33.90
2018-08-07T09:59:29.909Z,34.00
2018-08-07T10:03:38.125Z,34.10
2018-08-07T10:07:46.497Z,34.00
2018-08-07T10:11:54.680Z,34.10
2018-08-07T10:16:02.894Z,34.20
2018-08-07T10:20:11.458Z,34.20
2018-08-07T10:24:19.669Z,34.30
2018-08-07T10:28:27.858Z,34.60
2018-08-07T10:32:36.064Z,34.90
2018-08-07T10:36:44.266Z,35.00
2018-08-07T10:40:52.659Z,35.00
2018-08-07T10:45:00.680Z,35.20
2018-08-07T10:49:08.976Z,35.30
2018-08-07T10:53:17.138Z,35.30
2018-08-07T10:57:26.402Z,35.60
2018-08-07T11:01:34.672Z,35.50
2018-08-07T11:09:50.780Z,35.70
2018-08-07T11:13:58.969Z,36.10
2018-08-07T11:18:07.145Z,36.50
2018-08-07T11:22:15.329Z,36.50
2018-08-07T11:26:23.509Z,36.20
2018-08-07T11:30:31.883Z,36.00
2018-08-07T11:34:40.065Z,36.40
2018-08-07T11:38:48.242Z,36.50
2018-08-07T11:42:57.113Z,36.50
2018-08-07T11:47:05.445Z,36.70
2018-08-07T11:51:13.805Z,36.80
2018-08-07T11:55:22.640Z,36.60
2018-08-07T11:59:30.832Z,36.50
2018-08-07T12:03:39.010Z,36.70
2018-08-07T12:07:47.296Z,36.90
2018-08-07T12:11:55.470Z,36.90
2018-08-07T12:16:03.665Z,37.10
2018-08-07T12:20:11.898Z,37.20
2018-08-07T12:24:20.062Z,37.50
2018-08-07T12:28:28.244Z,37.30
2018-08-07T12:32:36.416Z,37.30
2018-08-07T12:36:44.613Z,37.30
2018-08-07T12:40:52.772Z,37.50
2018-08-07T12:45:00.974Z,37.60
2018-08-07T12:49:09.161Z,37.70
2018-08-07T12:53:17.422Z,37.80
2018-08-07T12:57:25.544Z,38.00
2018-08-07T13:01:33.752Z,38.00
2018-08-07T13:05:41.962Z,38.00
2018-08-07T13:09:50.147Z,38.10
2018-08-07T13:13:58.336Z,38.00
2018-08-07T13:18:06.522Z,38.40
2018-08-07T13:22:14.727Z,38.90
2018-08-07T13:26:22.963Z,39.00
2018-08-07T13:30:31.099Z,38.80
2018-08-07T13:34:39.513Z,38.60
2018-08-07T13:38:47.977Z,38.40
2018-08-07T13:42:56.157Z,38.50
2018-08-07T13:47:04.411Z,38.60
2018-08-07T13:55:21.845Z,38.60
2018-08-07T13:59:30.051Z,38.60
2018-08-07T14:03:38.267Z,38.50
2018-08-07T14:07:47.486Z,38.50
2018-08-07T14:11:56.098Z,38.60
2018-08-07T14:16:04.545Z,38.70
2018-08-07T14:20:13.853Z,38.90
2018-08-07T14:24:22.058Z,38.70
2018-08-07T14:28:30.261Z,38.50
2018-08-07T14:32:38.467Z,38.40
2018-08-07T14:36:46.717Z,38.50
2018-08-07T14:40:54.904Z,38.60
2018-08-07T14:45:03.126Z,38.50
2018-08-07T14:49:11.305Z,38.60
2018-08-07T14:53:19.678Z,38.50
2018-08-07T14:57:28.196Z,38.40
2018-08-07T15:01:36.389Z,38.40
2018-08-07T15:05:44.588Z,38.20
2018-08-07T15:09:53.637Z,38.20
2018-08-07T15:14:01.938Z,38.30
2018-08-07T15:18:10.145Z,38.10
2018-08-07T15:22:20.458Z,38.20
2018-08-07T15:26:28.720Z,38.30
2018-08-07T15:30:36.903Z,38.10
2018-08-07T15:34:45.079Z,38.10
2018-08-07T15:38:53.266Z,38.40
2018-08-07T15:43:01.471Z,38.40
2018-08-07T15:47:09.653Z,38.30
2018-08-07T15:51:17.825Z,38.10
2018-08-07T15:55:27.148Z,37.80
2018-08-07T15:59:35.371Z,37.60
2018-08-07T16:03:43.558Z,37.50
2018-08-07T16:07:53.004Z,37.50
2018-08-07T16:12:01.203Z,37.40
2018-08-07T16:16:10.133Z,37.50
2018-08-07T16:20:18.380Z,37.50
2018-08-07T16:24:26.578Z,37.50
2018-08-07T16:28:34.775Z,37.60
2018-08-07T16:32:42.982Z,37.60
2018-08-07T16:36:51.189Z,37.60
2018-08-07T16:40:59.353Z,37.20
2018-08-07T16:45:10.360Z,37.00
2018-08-07T16:49:18.544Z,37.10
2018-08-07T16:53:26.750Z,37.10
2018-08-07T16:57:34.925Z,37.10
2018-08-07T17:01:43.102Z,36.90
2018-08-07T17:05:51.309Z,36.70
2018-08-07T17:10:00.560Z,36.80
2018-08-07T17:14:08.760Z,36.80
2018-08-07T17:18:16.970Z,37.10
2018-08-07T17:22:25.697Z,37.50
2018-08-07T17:26:33.865Z,37.50
2018-08-07T17:30:42.077Z,37.40
2018-08-07T17:34:50.259Z,37.30
2018-08-07T17:38:58.450Z,36.90
2018-08-07T17:43:06.746Z,36.60
2018-08-07T17:47:14.917Z,36.00
2018-08-07T17:51:23.130Z,35.80
2018-08-07T17:55:31.314Z,36.00
2018-08-07T18:00:42.672Z,36.10
2018-08-07T18:04:50.869Z,35.90
2018-08-07T18:08:59.050Z,35.60
2018-08-07T18:13:07.265Z,35.20
2018-08-07T18:17:15.485Z,34.70
2018-08-07T18:21:23.660Z,34.10
2018-08-07T18:25:31.869Z,33.50
2018-08-07T18:29:40.078Z,33.00
2018-08-07T18:33:48.272Z,32.50
2018-08-07T18:37:56.517Z,32.00
2018-08-07T18:42:04.739Z,31.60
2018-08-07T18:46:12.900Z,31.20
2018-08-07T18:50:23.020Z,30.80
2018-08-07T18:54:31.201Z,30.50
2018-08-07T18:58:39.376Z,30.20
2018-08-07T19:02:47.532Z,29.80
2018-08-07T19:06:55.744Z,29.50
2018-08-07T19:11:04.050Z,29.10
2018-08-07T19:15:13.292Z,28.90
2018-08-07T19:19:21.578Z,28.60
2018-08-07T19:23:29.749Z,28.40
2018-08-07T19:27:37.969Z,28.10
2018-08-07T19:31:46.165Z,27.90
2018-08-07T19:35:54.481Z,27.70
2018-08-07T19:40:03.325Z,27.50
2018-08-07T19:44:11.568Z,27.10
2018-08-07T19:48:19.702Z,26.90
2018-08-07T19:52:27.886Z,26.80
2018-08-07T19:56:36.244Z,26.60
2018-08-07T20:00:44.566Z,26.50
2018-08-07T20:04:52.855Z,26.40
2018-08-07T20:09:01.113Z,26.30
2018-08-07T20:13:09.298Z,26.10
2018-08-07T20:17:18.805Z,26.00
2018-08-07T20:21:26.997Z,26.00
2018-08-07T20:25:35.249Z,25.90
2018-08-07T20:29:43.736Z,25.80
2018-08-07T20:33:51.937Z,25.90
2018-08-07T20:38:00.091Z,26.10
2018-08-07T20:42:08.274Z,26.20
2018-08-07T20:46:16.449Z,26.40
2018-08-07T20:50:25.862Z,26.80
2018-08-07T20:54:34.045Z,26.90
2018-08-07T20:58:42.249Z,26.90
2018-08-07T21:02:50.528Z,26.70
2018-08-07T21:06:58.725Z,26.60
2018-08-07T21:11:06.909Z,26.40
2018-08-07T21:15:15.094Z,26.30
2018-08-07T21:19:23.317Z,26.20
2018-08-07T21:23:31.494Z,26.00
2018-08-07T21:27:39.807Z,25.90
2018-08-07T21:31:48.090Z,25.80
2018-08-07T21:35:56.265Z,25.60
2018-08-07T21:40:04.779Z,25.50
2018-08-07T21:44:12.977Z,25.30
2018-08-07T21:48:21.173Z,25.10
2018-08-07T21:52:29.373Z,25.00
2018-08-07T21:56:37.574Z,24.80
2018-08-07T22:00:49.141Z,24.70
2018-08-07T22:04:57.350Z,24.60
2018-08-07T22:09:07.639Z,24.40
2018-08-07T22:13:15.861Z,24.20
2018-08-07T22:17:24.066Z,24.10
2018-08-07T22:21:32.260Z,23.90
2018-08-07T22:25:40.470Z,23.80
2018-08-07T22:29:48.680Z,23.70
2018-08-07T22:33:56.872Z,23.60
2018-08-07T22:38:05.058Z,23.50
2018-08-07T22:42:13.348Z,23.40
2018-08-07T22:50:29.498Z,23.10
2018-08-07T22:54:37.688Z,23.00
2018-08-07T22:58:45.882Z,22.90
2018-08-07T23:02:54.120Z,22.70
2018-08-07T23:07:02.351Z,22.60
2018-08-07T23:11:10.530Z,22.50
2018-08-07T23:15:20.016Z,22.40
2018-08-07T23:19:27.511Z,22.30
2018-08-07T23:23:35.700Z,22.20
2018-08-07T23:27:43.877Z,22.00
2018-08-07T23:36:00.053Z,21.90
2018-08-07T23:40:10.169Z,21.90
2018-08-07T23:44:18.380Z,21.80
2018-08-07T23:48:26.584Z,21.70
2018-08-07T23:52:34.761Z,21.60
2018-08-07T23:56:42.949Z,21.60
